createdAt,value
2022-10-05T00:00:39.617Z,4.85
2022-10-05T00:05:41.728Z,4.68
2022-10-05T00:10:45.163Z,5.30
2022-10-05T00:15:47.591Z,5.40
2022-10-05T00:20:49.878Z,5.00
2022-10-05T00:25:51.958Z,5.47
2022-10-05T00:30:58.739Z,4.63
2022-10-05T00:36:00.777Z,5.68
2022-10-05T00:41:13.212Z,5.00
2022-10-05T00:46:20.926Z,5.22
2022-10-05T00:51:29.949Z,5.30
2022-10-05T00:56:31.915Z,5.63
2022-10-05T01:01:50.808Z,6.00
2022-10-05T01:07:04.199Z,5.00
2022-10-05T01:12:15.567Z,5.55
2022-10-05T01:17:35.527Z,5.25
2022-10-05T01:23:02.342Z,5.30
2022-10-05T01:28:16.661Z,5.85
2022-10-05T01:33:26.921Z,6.03
2022-10-05T01:38:34.884Z,5.78
2022-10-05T01:43:46.206Z,5.82
2022-10-05T01:49:20.173Z,6.03
2022-10-05T01:55:04.547Z,5.97
2022-10-05T02:00:09.717Z,5.80
2022-10-05T02:05:23.232Z,5.68
2022-10-05T02:10:51.746Z,5.55
2022-10-05T02:16:01.647Z,5.78
2022-10-05T02:21:05.288Z,4.95
2022-10-05T02:26:10.580Z,5.45
2022-10-05T02:31:17.556Z,6.05
2022-10-05T02:36:34.422Z,5.80
2022-10-05T02:41:47.241Z,5.43
2022-10-05T02:47:13.039Z,4.88
2022-10-05T02:52:29.603Z,5.20
2022-10-05T02:57:38.818Z,5.25
2022-10-05T03:03:02.841Z,5.63
2022-10-05T03:08:17.086Z,5.00
2022-10-05T03:13:44.957Z,4.65
2022-10-05T03:19:10.125Z,5.07
2022-10-05T03:24:29.653Z,4.72
2022-10-05T03:29:56.583Z,4.50
2022-10-05T03:35:08.055Z,4.30
2022-10-05T03:40:44.700Z,4.07
2022-10-05T03:45:46.915Z,4.90
2022-10-05T03:51:03.164Z,5.55
2022-10-05T03:56:12.606Z,5.03
2022-10-05T04:01:19.572Z,6.03
2022-10-05T04:06:34.664Z,5.65
2022-10-05T04:11:58.014Z,6.20
2022-10-05T04:17:14.839Z,6.00
2022-10-05T04:22:25.154Z,5.32
2022-10-05T04:27:32.169Z,5.50
2022-10-05T04:32:42.364Z,5.65
2022-10-05T04:38:03.975Z,5.35
2022-10-05T04:43:40.463Z,4.80
2022-10-05T04:49:11.213Z,4.80
2022-10-05T04:54:49.797Z,4.53
2022-10-05T05:00:13.676Z,4.45
2022-10-05T05:05:58.685Z,4.18
2022-10-05T05:11:06.202Z,4.28
2022-10-05T05:16:19.872Z,3.65
2022-10-05T05:21:44.969Z,4.25
2022-10-05T05:27:01.128Z,3.90
2022-10-05T05:32:12.921Z,3.20
2022-10-05T05:37:32.178Z,3.60
2022-10-05T05:42:43.907Z,3.13
2022-10-05T05:47:53.806Z,3.42
2022-10-05T05:53:19.378Z,3.97
2022-10-05T05:58:29.548Z,4.65
2022-10-05T06:03:39.457Z,4.68
2022-10-05T06:08:45.757Z,4.18
2022-10-05T06:14:22.291Z,3.88
2022-10-05T06:19:27.013Z,4.53
2022-10-05T06:24:37.423Z,4.20
2022-10-05T06:30:08.351Z,4.47
2022-10-05T06:35:15.649Z,4.05
2022-10-05T06:40:27.068Z,4.88
2022-10-05T06:45:47.297Z,4.60
2022-10-05T06:51:35.420Z,4.93
2022-10-05T06:56:55.764Z,4.22
2022-10-05T07:02:16.090Z,3.92
2022-10-05T07:07:34.252Z,3.92
2022-10-05T07:12:45.029Z,3.28
2022-10-05T07:23:28.741Z,2.97
2022-10-05T07:28:40.420Z,2.97
2022-10-05T07:34:01.332Z,2.58
2022-10-05T07:39:32.318Z,2.58
2022-10-05T07:44:53.330Z,2.67
2022-10-05T07:50:07.613Z,2.13
2022-10-05T07:55:22.615Z,2.30
2022-10-05T08:01:00.530Z,2.20
2022-10-05T08:06:07.442Z,2.30
2022-10-05T08:11:15.861Z,2.55
2022-10-05T08:16:18.826Z,2.38
2022-10-05T08:21:47.342Z,2.30
2022-10-05T08:27:01.707Z,3.00
2022-10-05T08:32:10.635Z,2.78
2022-10-05T08:37:21.099Z,2.88
2022-10-05T08:42:41.874Z,2.80
2022-10-05T08:48:18.948Z,2.60
2022-10-05T08:53:23.668Z,3.00
2022-10-05T08:58:43.830Z,2.78
2022-10-05T09:04:20.002Z,3.03
2022-10-05T09:10:01.864Z,3.00
2022-10-05T09:15:31.168Z,2.50
2022-10-05T09:20:48.765Z,3.00
2022-10-05T09:26:03.971Z,2.72
2022-10-05T09:31:15.013Z,2.55
2022-10-05T09:36:47.359Z,2.97
2022-10-05T09:42:16.593Z,2.88
2022-10-05T09:47:53.824Z,2.45
2022-10-05T09:53:14.229Z,2.70
2022-10-05T09:58:44.445Z,2.50
2022-10-05T10:04:02.318Z,2.13
2022-10-05T10:09:29.085Z,2.17
2022-10-05T10:14:49.435Z,2.15
2022-10-05T10:20:30.468Z,2.45
2022-10-05T10:26:17.873Z,2.25
2022-10-05T10:31:22.839Z,2.25
2022-10-05T10:36:38.261Z,1.95
2022-10-05T10:41:46.078Z,1.83
2022-10-05T10:47:03.223Z,2.00
2022-10-05T10:52:14.641Z,1.80
2022-10-05T10:57:41.931Z,1.80
2022-10-05T11:02:46.904Z,1.85
2022-10-05T11:08:30.184Z,1.73
2022-10-05T11:14:21.184Z,2.00
2022-10-05T11:20:05.230Z,1.70
2022-10-05T11:25:31.801Z,1.70
2022-10-05T11:30:57.598Z,1.90
2022-10-05T11:36:21.449Z,1.70
2022-10-05T11:41:48.712Z,1.83
2022-10-05T11:47:09.007Z,1.80
2022-10-05T11:52:20.931Z,1.95
2022-10-05T11:57:38.186Z,1.75
2022-10-05T12:02:47.685Z,2.00
2022-10-05T12:07:52.510Z,1.73
2022-10-05T12:13:35.960Z,1.40
2022-10-05T12:19:00.122Z,1.67
2022-10-05T12:24:26.508Z,1.20
2022-10-05T12:29:39.968Z,1.15
2022-10-05T12:35:36.653Z,1.50
2022-10-05T12:40:46.298Z,1.65
2022-10-05T12:45:57.615Z,1.30
2022-10-05T12:51:24.450Z,1.13
2022-10-05T12:56:33.866Z,1.20
2022-10-05T13:01:43.434Z,1.30
2022-10-05T13:07:12.216Z,1.40
2022-10-05T13:12:29.778Z,1.13
2022-10-05T13:17:54.740Z,1.20
2022-10-05T13:23:09.027Z,1.20
2022-10-05T13:28:24.019Z,1.63
2022-10-05T13:33:25.939Z,1.60
2022-10-05T13:38:38.400Z,1.25
2022-10-05T13:43:58.336Z,1.35
2022-10-05T13:49:15.547Z,1.42
2022-10-05T13:54:40.587Z,1.38
2022-10-05T13:59:53.408Z,1.33
2022-10-05T14:05:14.086Z,1.58
2022-10-05T14:10:38.251Z,1.70
2022-10-05T14:15:42.379Z,1.30
2022-10-05T14:20:58.328Z,1.73
2022-10-05T14:26:04.114Z,1.50
2022-10-05T14:31:27.560Z,1.38
2022-10-05T14:36:40.127Z,1.50
2022-10-05T14:41:47.712Z,1.20
2022-10-05T14:46:54.359Z,1.20
2022-10-05T14:51:57.173Z,1.20
2022-10-05T14:57:33.474Z,1.20
2022-10-05T15:02:59.188Z,1.20
2022-10-05T15:08:18.234Z,1.50
2022-10-05T15:13:29.239Z,1.40
2022-10-05T15:23:57.385Z,1.50
2022-10-05T15:29:05.145Z,1.48
2022-10-05T15:34:16.360Z,1.50
2022-10-05T15:39:32.647Z,1.52
2022-10-05T15:45:06.313Z,1.30
2022-10-05T15:50:32.203Z,1.60
2022-10-05T15:55:37.601Z,1.33
2022-10-05T16:01:08.698Z,1.58
2022-10-05T16:06:54.168Z,1.40
2022-10-05T16:12:06.681Z,1.33
2022-10-05T16:17:33.847Z,1.33
2022-10-05T16:22:47.277Z,1.60
2022-10-05T16:28:08.080Z,1.50
2022-10-05T16:33:21.338Z,1.50
2022-10-05T16:38:45.738Z,1.60
2022-10-05T16:44:07.296Z,1.35
2022-10-05T16:49:18.342Z,1.60
2022-10-05T16:54:25.359Z,2.00
2022-10-05T17:00:04.378Z,1.33
2022-10-05T17:05:25.953Z,1.50
2022-10-05T17:21:02.424Z,1.60
2022-10-05T17:26:33.252Z,1.38
2022-10-05T17:32:01.093Z,2.03
2022-10-05T17:37:18.218Z,1.80
2022-10-05T17:42:26.521Z,1.70
2022-10-05T17:47:59.327Z,1.80
2022-10-05T17:53:40.078Z,2.10
2022-10-05T17:58:54.341Z,1.75
2022-10-05T18:04:11.752Z,2.28
2022-10-05T18:09:13.813Z,2.42
2022-10-05T18:14:20.438Z,2.03
2022-10-05T18:19:23.192Z,2.00
2022-10-05T18:24:43.090Z,2.05
2022-10-05T18:30:02.772Z,2.03
2022-10-05T18:35:29.435Z,1.85
2022-10-05T18:40:59.517Z,1.83
2022-10-05T18:46:25.351Z,2.08
2022-10-05T18:51:51.847Z,2.38
2022-10-05T18:56:54.294Z,1.73
2022-10-05T19:02:11.654Z,1.80
2022-10-05T19:07:16.679Z,2.30
2022-10-05T19:12:21.517Z,2.75
2022-10-05T19:17:39.981Z,2.90
2022-10-05T19:22:52.497Z,2.80
2022-10-05T19:28:13.269Z,3.33
2022-10-05T19:33:44.584Z,3.03
2022-10-05T19:39:04.913Z,3.17
2022-10-05T19:44:25.852Z,3.58
2022-10-05T19:49:42.860Z,2.83
2022-10-05T19:54:45.892Z,2.85
2022-10-05T19:59:48.503Z,2.60
2022-10-05T20:04:54.807Z,2.75
2022-10-05T20:10:14.256Z,2.95
2022-10-05T20:15:44.319Z,2.58
2022-10-05T20:20:48.660Z,2.70
2022-10-05T20:26:10.828Z,2.80
2022-10-05T20:31:14.343Z,3.13
2022-10-05T20:36:16.377Z,2.78
2022-10-05T20:41:18.319Z,2.53
2022-10-05T20:46:20.297Z,2.42
2022-10-05T20:51:22.419Z,1.65
2022-10-05T20:56:26.220Z,1.20
2022-10-05T21:01:29.775Z,1.42
2022-10-05T21:06:31.948Z,1.05
2022-10-05T21:11:34.003Z,0.90
2022-10-05T21:16:38.179Z,0.80
2022-10-05T21:21:41.883Z,0.60
2022-10-05T21:26:44.515Z,0.90
2022-10-05T21:31:46.535Z,0.70
2022-10-05T21:36:48.607Z,0.85
2022-10-05T21:41:50.567Z,0.60
2022-10-05T21:46:52.674Z,0.52
2022-10-05T21:51:54.796Z,0.52
2022-10-05T21:56:58.199Z,0.88
2022-10-05T22:02:00.695Z,0.60
2022-10-05T22:07:10.107Z,0.57
2022-10-05T22:12:12.243Z,0.70
2022-10-05T22:17:19.980Z,0.52
2022-10-05T22:22:22.139Z,0.90
2022-10-05T22:27:27.388Z,0.90
2022-10-05T22:32:29.523Z,0.82
2022-10-05T22:37:34.801Z,0.68
2022-10-05T22:42:38.787Z,0.88
2022-10-05T22:47:42.231Z,0.98
2022-10-05T22:52:44.284Z,1.40
2022-10-05T22:57:46.371Z,0.82
2022-10-05T23:02:48.399Z,0.90
2022-10-05T23:07:50.451Z,0.82
2022-10-05T23:13:00.488Z,0.98
2022-10-05T23:18:02.979Z,1.43
2022-10-05T23:23:05.063Z,1.05
2022-10-05T23:28:07.133Z,1.05
2022-10-05T23:33:09.268Z,0.93
2022-10-05T23:38:11.304Z,1.08
2022-10-05T23:43:13.291Z,1.00
2022-10-05T23:48:15.302Z,1.13
2022-10-05T23:53:18.187Z,1.02
2022-10-05T23:58:20.882Z,1.48
